Time;durP1;ratioP1;P1;durP2;ratioP2;P2;SDS_P1;SDS_P2;PMS_P1;PMS_P2;Temp;Humidity;BMP_temperature;BMP_pressure;BME280_temperature;BME280_humidity;BME280_pressure;Samples;Min_cycle;Max_cycle;Signal;HPM_P1;HPM_P2
2022/07/25 00:02:48;;;;;;;4.15;3.85;;;;;;;20.90;56.04;97021.56;10206067;29;20083;-47
2022/07/25 00:08:08;;;;;;;4.65;3.95;;;;;;;20.90;55.93;97027.78;10229873;28;20446;-50
2022/07/25 00:13:28;;;;;;;4.40;4.00;;;;;;;20.89;55.72;97012.63;10216847;29;20408;-50
2022/07/25 00:18:47;;;;;;;4.40;4.00;;;;;;;20.89;55.63;97018.06;10216036;29;20071;-49
2022/07/25 00:24:07;;;;;;;4.20;3.80;;;;;;;20.89;55.39;97015.34;10220406;29;20055;-49
2022/07/25 00:29:26;;;;;;;4.13;3.78;;;;;;;20.89;55.29;97012.63;10228962;28;20062;-49
2022/07/25 00:34:46;;;;;;;4.82;4.00;;;;;;;20.89;55.49;97006.44;10216263;29;20416;-49
2022/07/25 00:40:06;;;;;;;4.32;3.92;;;;;;;20.88;55.04;97002.16;10216041;29;20055;-49
2022/07/25 00:45:26;;;;;;;4.20;3.90;;;;;;;20.87;55.04;96993.22;10215033;29;20060;-48
2022/07/25 00:50:45;;;;;;;3.90;3.60;;;;;;;20.87;54.90;96985.09;10215208;29;20059;-49
2022/07/25 00:56:05;;;;;;;4.32;3.90;;;;;;;20.87;54.75;96978.88;10215037;29;20063;-49
2022/07/25 01:01:25;;;;;;;4.35;3.95;;;;;;;20.88;54.72;96985.91;10217721;28;20052;-49
2022/07/25 01:06:44;;;;;;;5.70;3.88;;;;;;;20.87;54.68;96979.69;10214958;29;20052;-51
2022/07/25 01:12:04;;;;;;;4.53;3.90;;;;;;;20.87;54.48;96976.19;10227405;28;20047;-50
2022/07/25 01:17:30;;;;;;;4.22;3.83;;;;;;;20.86;54.33;96974.63;10217633;28;20060;-47
2022/07/25 01:22:51;;;;;;;4.63;3.80;;;;;;;20.86;54.49;96980.03;10214443;29;20058;-48
2022/07/25 01:28:11;;;;;;;5.05;3.88;;;;;;;20.85;54.25;96975.72;10214052;29;20059;-51
2022/07/25 01:33:30;;;;;;;4.35;4.00;;;;;;;20.84;54.14;96963.31;10214083;28;20052;-49
2022/07/25 01:38:50;;;;;;;4.30;3.90;;;;;;;20.84;53.92;96966.81;10213765;29;20066;-47
2022/07/25 01:44:09;;;;;;;4.00;3.70;;;;;;;20.84;53.95;96966.03;10213468;29;20565;-47
2022/07/25 01:49:28;;;;;;;3.97;3.55;;;;;;;20.83;53.81;96959.78;10213180;29;20419;-51
2022/07/25 01:54:48;;;;;;;5.20;4.13;;;;;;;20.83;53.81;96950.88;10212680;29;20052;-49
2022/07/25 02:00:10;;;;;;;5.15;4.03;;;;;;;20.81;53.77;96945.00;10213191;29;20055;-50
2022/07/25 02:05:32;;;;;;;4.30;3.90;;;;;;;20.80;53.65;96946.94;10198846;29;20064;-50
2022/07/25 02:10:51;;;;;;;3.85;3.55;;;;;;;20.78;53.55;96943.75;10212677;29;20144;-48
2022/07/25 02:16:11;;;;;;;4.38;3.97;;;;;;;20.78;53.54;96938.34;10212218;29;20489;-49
2022/07/25 02:21:30;;;;;;;3.95;3.55;;;;;;;20.79;53.50;96931.00;10212603;29;20119;-49
2022/07/25 02:26:49;;;;;;;4.72;3.80;;;;;;;20.77;53.43;96935.97;10225044;28;20056;-50
2022/07/25 02:32:09;;;;;;;4.10;3.70;;;;;;;20.78;53.37;96926.69;10225059;29;20056;-49
2022/07/25 02:37:28;;;;;;;4.38;3.88;;;;;;;20.77;53.41;96928.63;10212333;29;20075;-50
2022/07/25 02:42:47;;;;;;;4.60;3.92;;;;;;;20.77;53.19;96927.84;10211810;29;20066;-47
2022/07/25 02:48:07;;;;;;;5.43;3.92;;;;;;;20.76;53.25;96926.25;10211816;29;20107;-47
2022/07/25 02:53:26;;;;;;;4.50;4.10;;;;;;;20.74;53.01;96921.97;10211939;29;20056;-50
2022/07/25 02:58:46;;;;;;;4.53;3.90;;;;;;;20.74;52.99;96921.19;10212553;29;20056;-48
2022/07/25 03:04:05;;;;;;;4.20;3.80;;;;;;;20.73;53.01;96914.94;10210071;29;20148;-48
2022/07/25 03:09:25;;;;;;;5.15;3.78;;;;;;;20.73;52.90;96920.34;10217236;29;20056;-50
2022/07/25 03:14:44;;;;;;;3.90;3.60;;;;;;;20.73;52.83;96908.75;10209053;29;20059;-48
2022/07/25 03:20:05;;;;;;;4.15;3.83;;;;;;;20.72;52.80;96910.66;10219052;29;20064;-51
2022/07/25 03:25:25;;;;;;;4.25;3.85;;;;;;;20.73;52.85;96908.75;10218685;29;20052;-49
2022/07/25 03:30:44;;;;;;;4.10;3.78;;;;;;;20.71;52.76;96900.94;10218744;29;20059;-50
2022/07/25 03:36:03;;;;;;;4.43;4.03;;;;;;;20.71;52.76;96892.03;10218476;29;20055;-50
2022/07/25 03:41:23;;;;;;;4.95;3.90;;;;;;;20.70;52.71;96891.25;10218111;29;20079;-47
2022/07/25 03:46:42;;;;;;;5.72;4.00;;;;;;;20.71;52.63;96889.34;10230480;28;20118;-48
2022/07/25 03:52:02;;;;;;;4.68;3.58;;;;;;;20.70;52.55;96893.97;10230210;28;20393;-49
2022/07/25 03:57:21;;;;;;;4.60;4.00;;;;;;;20.69;52.51;96880.75;10217672;29;20062;-47
2022/07/25 04:02:41;;;;;;;4.90;4.40;;;;;;;20.68;52.53;96885.38;10217744;29;20068;-49
2022/07/25 04:08:00;;;;;;;4.50;4.10;;;;;;;20.68;52.40;96877.25;10212235;28;20115;-48
2022/07/25 04:13:20;;;;;;;5.18;4.20;;;;;;;20.51;52.54;96883.53;10217004;29;20123;-50
2022/07/25 04:18:39;;;;;;;4.32;4.03;;;;;;;20.34;53.09;96873.59;10215700;29;20064;-50
2022/07/25 04:23:59;;;;;;;5.05;4.55;;;;;;;20.25;53.34;96872.88;10216433;29;20064;-48
2022/07/25 04:29:18;;;;;;;4.93;4.40;;;;;;;20.23;53.50;96868.91;10216293;29;20393;-48
2022/07/25 04:34:37;;;;;;;4.85;4.45;;;;;;;20.20;53.70;96869.56;10215661;29;20060;-47
2022/07/25 04:39:57;;;;;;;5.07;4.57;;;;;;;20.18;53.85;96872.59;10226899;28;20450;-47
2022/07/25 04:45:16;;;;;;;4.40;4.00;;;;;;;20.12;54.37;96863.88;10215728;29;20083;-49
2022/07/25 04:50:35;;;;;;;5.78;4.57;;;;;;;20.14;54.92;96860.84;10228224;28;20044;-49
2022/07/25 04:55:55;;;;;;;7.07;4.60;;;;;;;20.16;55.15;96869.41;10215737;29;20111;-47
2022/07/25 05:01:14;;;;;;;5.15;4.32;;;;;;;20.19;55.10;96867.97;10215435;29;20062;-50
2022/07/25 05:06:34;;;;;;;4.75;4.35;;;;;;;20.21;55.40;96863.03;10214183;29;20055;-50
2022/07/25 05:11:53;;;;;;;6.75;4.95;;;;;;;20.23;55.67;96861.59;10215263;29;20060;-50
2022/07/25 05:17:13;;;;;;;5.20;4.70;;;;;;;20.28;55.93;96858.69;10213719;29;20063;-50
2022/07/25 05:22:32;;;;;;;5.20;4.70;;;;;;;20.33;55.87;96858.50;10214002;29;20066;-50
2022/07/25 05:27:54;;;;;;;9.95;4.65;;;;;;;20.38;55.86;96851.31;10214229;29;20048;-50
2022/07/25 05:33:13;;;;;;;5.10;4.70;;;;;;;20.41;55.87;96854.16;10213316;29;20066;-51
2022/07/25 05:38:33;;;;;;;4.75;4.35;;;;;;;20.44;55.79;96853.50;10213121;29;20136;-50
2022/07/25 05:43:53;;;;;;;4.55;4.15;;;;;;;20.45;55.71;96851.59;10225993;28;20052;-50
2022/07/25 05:49:13;;;;;;;5.95;4.60;;;;;;;20.46;55.75;96845.03;10213187;29;20060;-50
2022/07/25 05:54:33;;;;;;;4.70;4.30;;;;;;;20.46;55.70;96832.31;10213336;29;20059;-50
2022/07/25 05:59:53;;;;;;;5.15;4.35;;;;;;;20.48;55.74;96842.81;10221773;28;20063;-50
2022/07/25 06:05:12;;;;;;;4.70;4.30;;;;;;;20.49;55.71;96828.94;10225630;28;20060;-49
2022/07/25 06:10:31;;;;;;;6.20;4.82;;;;;;;20.49;55.73;96839.00;10225397;29;20059;-51
2022/07/25 06:15:51;;;;;;;4.82;4.10;;;;;;;20.50;55.75;96837.84;10220218;29;20058;-50
2022/07/25 06:21:11;;;;;;;4.47;4.07;;;;;;;20.50;55.68;96829.72;10225437;28;20420;-50
2022/07/25 06:26:30;;;;;;;5.22;4.00;;;;;;;20.50;55.76;96835.16;10212534;29;20059;-50
2022/07/25 06:31:50;;;;;;;5.05;4.15;;;;;;;20.51;56.09;96834.03;10212191;29;20107;-47
2022/07/25 06:37:09;;;;;;;4.70;4.30;;;;;;;20.52;55.92;96833.72;10200724;29;20475;-47
2022/07/25 06:42:30;;;;;;;21.08;4.88;;;;;;;20.53;56.16;96829.09;10228652;29;20048;-50
2022/07/25 06:47:49;;;;;;;10.45;5.90;;;;;;;20.54;56.33;96826.06;10219557;29;20055;-49
2022/07/25 06:53:09;;;;;;;11.90;4.70;;;;;;;20.53;56.69;96816.34;10220036;29;20064;-52
2022/07/25 06:58:29;;;;;;;9.25;5.00;;;;;;;20.53;56.80;96819.06;10220464;29;20063;-50
2022/07/25 07:03:48;;;;;;;5.88;4.38;;;;;;;20.54;56.82;96814.41;10218756;29;20051;-51
2022/07/25 07:09:07;;;;;;;6.05;4.25;;;;;;;20.54;56.70;96814.41;10219444;29;20051;-51
2022/07/25 07:14:27;;;;;;;5.55;4.47;;;;;;;20.54;56.89;96814.41;10230772;28;20507;-50
2022/07/25 07:19:46;;;;;;;5.00;4.00;;;;;;;20.54;56.90;96809.81;10218935;29;20056;-50
2022/07/25 07:25:06;;;;;;;4.75;4.30;;;;;;;20.55;56.88;96805.19;10231346;28;20055;-50
2022/07/25 07:30:25;;;;;;;5.22;4.30;;;;;;;20.54;56.99;96790.06;10218596;29;20456;-51
2022/07/25 07:35:45;;;;;;;4.50;4.10;;;;;;;20.54;57.00;96784.66;10230960;28;20051;-50
2022/07/25 07:41:04;;;;;;;5.88;4.00;;;;;;;20.55;57.18;96778.13;10230821;29;20415;-50
2022/07/25 07:46:24;;;;;;;4.90;3.97;;;;;;;20.55;57.08;96767.31;10217098;29;20518;-50
2022/07/25 07:51:43;;;;;;;5.20;3.97;;;;;;;20.54;57.29;96765.72;10227029;28;20052;-50
2022/07/25 07:57:02;;;;;;;4.10;3.70;;;;;;;20.55;57.38;96756.47;10217695;29;20056;-50
2022/07/25 08:02:22;;;;;;;3.63;3.33;;;;;;;20.55;57.33;96751.84;10217385;29;20070;-49
2022/07/25 08:07:41;;;;;;;4.57;4.00;;;;;;;20.55;57.44;96754.56;10217507;29;20062;-50
2022/07/25 08:13:02;;;;;;;4.00;3.70;;;;;;;20.56;57.47;96755.34;10219485;29;20054;-51
2022/07/25 08:18:21;;;;;;;4.00;3.50;;;;;;;20.56;57.59;96755.34;10218109;29;20047;-50
2022/07/25 08:23:40;;;;;;;4.20;3.80;;;;;;;20.55;57.59;96743.72;10216592;29;20070;-50
2022/07/25 08:29:00;;;;;;;4.07;3.78;;;;;;;20.55;57.73;96741.03;10204696;29;20404;-50
2022/07/25 08:34:21;;;;;;;4.85;3.78;;;;;;;20.57;57.82;96738.00;10215643;29;20055;-51
2022/07/25 08:39:40;;;;;;;3.85;3.55;;;;;;;20.57;57.70;96740.69;10216044;29;20066;-50
2022/07/25 08:45:03;;;;;;;3.90;3.60;;;;;;;20.57;57.83;96727.16;10215723;29;20114;-49
2022/07/25 08:50:26;;;;;;;4.10;3.75;;;;;;;20.58;57.82;96736.06;10215184;29;20060;-50
2022/07/25 08:55:46;;;;;;;4.28;3.78;;;;;;;20.57;57.90;96719.06;10215538;29;20059;-50
2022/07/25 09:01:06;;;;;;;4.25;3.85;;;;;;;20.58;57.85;96717.13;10215207;29;20059;-50
2022/07/25 09:06:26;;;;;;;4.00;3.60;;;;;;;20.58;57.97;96717.13;10215736;28;20066;-48
2022/07/25 09:11:45;;;;;;;5.05;3.65;;;;;;;20.57;58.01;96705.50;10215014;29;20056;-49
2022/07/25 09:17:06;;;;;;;3.53;3.22;;;;;;;20.57;58.07;96702.81;10210443;29;20423;-50
2022/07/25 09:22:26;;;;;;;4.13;3.72;;;;;;;20.57;58.07;96694.69;10227563;29;20102;-50
2022/07/25 09:27:46;;;;;;;3.72;3.40;;;;;;;20.59;58.09;96687.06;10214447;29;20103;-50
2022/07/25 09:33:05;;;;;;;3.80;3.50;;;;;;;20.58;58.14;96684.66;10214153;29;20052;-50
2022/07/25 09:38:25;;;;;;;4.75;3.55;;;;;;;20.58;58.21;96677.34;10213913;29;20058;-51
2022/07/25 09:43:44;;;;;;;5.28;3.78;;;;;;;20.59;58.26;96684.34;10202627;29;20051;-50
2022/07/25 09:49:04;;;;;;;4.97;3.83;;;;;;;20.59;58.29;96680.84;10212644;29;20492;-50
2022/07/25 09:54:23;;;;;;;4.63;3.97;;;;;;;20.59;58.34;96676.22;10212782;29;20558;-50
2022/07/25 09:59:43;;;;;;;6.30;3.72;;;;;;;20.58;58.43;96671.94;10212390;29;20597;-50
2022/07/25 10:05:12;;;;;;;4.63;4.10;;;;;;;20.59;58.38;96665.41;10225699;28;20435;-50
2022/07/25 10:10:36;;;;;;;5.63;4.05;;;;;;;20.59;58.43;96662.69;10226021;28;20043;-51
2022/07/25 10:15:56;;;;;;;6.85;3.90;;;;;;;20.61;58.47;96665.84;10211979;29;20059;-50
2022/07/25 10:21:16;;;;;;;6.72;4.38;;;;;;;20.61;58.58;96655.03;10212863;29;20063;-50
2022/07/25 10:26:38;;;;;;;6.28;4.50;;;;;;;20.60;58.48;96647.25;10225184;28;20056;-50
2022/07/25 10:32:05;;;;;;;8.13;4.57;;;;;;;20.60;58.63;96648.06;10198261;29;20067;-50
2022/07/25 10:37:26;;;;;;;6.45;4.45;;;;;;;20.61;58.57;96636.09;10224143;29;20051;-50
2022/07/25 10:42:46;;;;;;;6.18;3.75;;;;;;;20.62;58.60;96631.47;10212651;29;20389;-49
2022/07/25 10:48:11;;;;;;;7.07;4.38;;;;;;;20.61;58.74;96625.25;10224982;29;20045;-50
2022/07/25 10:53:47;;;;;;;9.40;4.80;;;;;;;20.62;58.79;96624.16;10212259;29;20111;-51
2022/07/25 10:59:06;;;;;;;6.80;4.15;;;;;;;20.61;58.75;96598.19;10224689;29;20044;-50
2022/07/25 11:04:26;;;;;;;7.85;4.20;;;;;;;20.61;58.91;96600.91;10211988;29;20055;-50
2022/07/25 11:09:55;;;;;;;7.72;4.45;;;;;;;20.62;58.74;96594.38;10211604;29;20071;-50
2022/07/25 11:15:14;;;;;;;;;;;;;;;20.62;58.99;96588.97;10221265;29;20411;-50
2022/07/25 11:20:34;;;;;;;5.63;4.07;;;;;;;20.61;58.94;96587.38;10211662;29;19923;-49
2022/07/25 11:26:13;;;;;;;6.38;4.22;;;;;;;20.63;58.96;96578.91;10210983;29;20059;-50
2022/07/25 11:31:34;;;;;;;6.47;3.97;;;;;;;20.62;58.93;96564.59;10218190;29;20082;-50
2022/07/25 11:36:56;;;;;;;6.20;4.20;;;;;;;20.63;58.98;96558.06;10218905;29;20051;-48
2022/07/25 11:42:17;;;;;;;6.13;4.20;;;;;;;20.63;59.05;96541.81;10212018;29;20055;-50
2022/07/25 11:47:37;;;;;;;6.75;4.10;;;;;;;20.63;59.09;96541.81;10217241;29;20496;-48
2022/07/25 11:53:02;;;;;;;6.93;4.30;;;;;;;20.63;59.14;96525.56;10230341;28;20051;-50
2022/07/25 11:58:22;;;;;;;5.65;4.03;;;;;;;20.63;59.17;96522.88;10206766;29;20072;-49
2022/07/25 12:03:41;;;;;;;4.93;3.78;;;;;;;20.64;59.26;96529.88;10217682;29;20059;-50
2022/07/25 12:09:19;;;;;;;6.50;3.88;;;;;;;20.65;59.20;96511.72;10217528;29;20119;-50
2022/07/25 12:14:42;;;;;;;6.72;3.95;;;;;;;20.64;59.25;96508.22;10216798;29;20059;-50
2022/07/25 12:20:02;;;;;;;4.47;3.75;;;;;;;20.65;59.27;96506.28;10217078;29;20052;-51
2022/07/25 12:25:22;;;;;;;5.30;4.00;;;;;;;20.66;59.74;96508.66;10229389;28;20059;-50
2022/07/25 12:30:43;;;;;;;5.80;3.63;;;;;;;20.60;58.00;96496.50;10216219;29;20835;-50
2022/07/25 12:36:03;;;;;;;5.05;3.55;;;;;;;20.48;55.77;96491.03;10216171;29;20052;-50
2022/07/25 12:41:23;;;;;;;4.00;3.50;;;;;;;20.38;54.63;96483.34;10212174;29;20426;-52
2022/07/25 12:46:42;;;;;;;4.45;3.58;;;;;;;20.40;56.29;96470.28;10215750;29;20134;-50
2022/07/25 12:52:02;;;;;;;4.55;3.42;;;;;;;20.30;53.59;96458.78;10227506;29;20055;-51
2022/07/25 12:57:21;;;;;;;4.93;3.40;;;;;;;20.32;56.04;96439.50;10215711;29;20135;-50
2022/07/25 13:02:41;;;;;;;5.40;3.85;;;;;;;20.29;53.92;96443.69;10215398;29;20063;-50
2022/07/25 13:08:03;;;;;;;4.20;3.20;;;;;;;20.30;55.80;96437.13;10215281;29;20055;-51
2022/07/25 13:13:23;;;;;;;4.22;3.38;;;;;;;20.33;56.15;96424.88;10214877;29;20064;-49
2022/07/25 13:18:43;;;;;;;4.60;3.53;;;;;;;20.31;55.73;96416.31;10214427;29;20060;-51
2022/07/25 13:24:04;;;;;;;3.78;3.15;;;;;;;20.29;56.30;96407.72;10214440;29;20059;-50
2022/07/25 13:29:23;;;;;;;3.90;3.05;;;;;;;20.31;57.35;96400.06;10214286;29;20064;-50
2022/07/25 13:34:42;;;;;;;3.50;3.13;;;;;;;20.33;57.70;96398.59;10214046;29;20059;-51
2022/07/25 13:40:02;;;;;;;3.58;3.08;;;;;;;20.35;58.05;96390.16;10213866;29;20055;-51
2022/07/25 13:45:21;;;;;;;3.60;3.03;;;;;;;20.39;58.32;96380.22;10213792;29;20063;-51
2022/07/25 13:50:41;;;;;;;3.92;3.30;;;;;;;20.40;58.57;96381.00;10212830;29;20059;-50
2022/07/25 13:56:00;;;;;;;3.35;3.05;;;;;;;20.41;58.59;96374.47;10212726;29;20059;-51
2022/07/25 14:01:19;;;;;;;3.45;3.15;;;;;;;20.42;58.86;96365.22;10225779;28;20051;-51
2022/07/25 14:06:38;;;;;;;4.32;3.15;;;;;;;20.41;58.94;96361.72;10212977;29;20048;-50
2022/07/25 14:11:58;;;;;;;3.70;3.10;;;;;;;20.43;58.87;96359.47;10225620;28;20051;-50
2022/07/25 14:17:17;;;;;;;3.10;2.80;;;;;;;20.43;59.15;96361.41;10212241;29;20441;-50
2022/07/25 14:22:38;;;;;;;3.20;2.80;;;;;;;20.43;59.24;96356.75;10225240;28;20052;-50
2022/07/25 14:27:58;;;;;;;2.78;2.58;;;;;;;20.44;59.35;96355.63;10216463;29;20456;-50
2022/07/25 14:33:18;;;;;;;3.35;2.50;;;;;;;20.43;59.35;96342.47;10211790;29;20056;-49
2022/07/25 14:38:37;;;;;;;3.28;2.97;;;;;;;20.45;59.36;96332.09;10212330;29;20059;-51
2022/07/25 14:43:57;;;;;;;3.03;2.60;;;;;;;20.44;59.30;96333.19;10202790;29;20130;-50
2022/07/25 14:49:16;;;;;;;3.22;2.90;;;;;;;20.44;59.46;96330.50;10211313;29;20507;-50
2022/07/25 14:54:37;;;;;;;2.92;2.50;;;;;;;20.44;59.47;96327.78;10224599;29;20051;-50
2022/07/25 14:59:56;;;;;;;2.60;2.40;;;;;;;20.43;59.47;96320.81;10212764;29;20064;-50
2022/07/25 15:05:16;;;;;;;3.05;2.60;;;;;;;20.44;59.61;96317.75;10231417;28;20416;-49
2022/07/25 15:10:35;;;;;;;2.95;2.65;;;;;;;20.44;59.66;96314.25;10219949;29;20137;-48
2022/07/25 15:15:56;;;;;;;2.60;2.40;;;;;;;20.42;59.55;96306.47;10218345;29;20504;-50
2022/07/25 15:21:15;;;;;;;2.50;2.30;;;;;;;20.43;59.28;96296.47;10218159;29;20056;-50
2022/07/25 15:26:35;;;;;;;2.58;2.30;;;;;;;20.40;58.45;96289.00;10219107;29;20055;-50
2022/07/25 15:31:54;;;;;;;2.60;2.40;;;;;;;20.37;57.99;96278.91;10231241;28;20145;-50
2022/07/25 15:37:14;;;;;;;2.58;2.33;;;;;;;20.32;56.95;96283.38;10206746;29;20484;-50
2022/07/25 15:42:34;;;;;;;2.55;2.35;;;;;;;20.28;56.25;96268.19;10218150;29;20067;-48
2022/07/25 15:47:55;;;;;;;2.50;2.30;;;;;;;20.26;55.52;96265.81;10217863;29;20066;-49
2022/07/25 15:53:15;;;;;;;2.90;2.20;;;;;;;20.28;57.17;96265.50;10230317;28;20506;-51
2022/07/25 15:58:35;;;;;;;2.40;2.20;;;;;;;20.32;57.44;96261.75;10207962;29;20052;-51
2022/07/25 16:03:58;;;;;;;3.42;2.33;;;;;;;20.40;58.08;96251.16;10217551;29;20062;-54
2022/07/25 16:09:18;;;;;;;5.32;2.13;;;;;;;20.43;58.29;96245.84;10218013;29;20055;-51
2022/07/25 16:14:37;;;;;;;5.38;2.40;;;;;;;20.46;58.69;96239.72;10227690;29;20055;-52
2022/07/25 16:19:56;;;;;;;5.70;2.53;;;;;;;20.50;59.21;96237.13;10221880;28;20048;-49
2022/07/25 16:25:16;;;;;;;4.47;2.70;;;;;;;20.51;60.00;96236.00;10229403;28;20056;-50
2022/07/25 16:30:35;;;;;;;9.20;3.97;;;;;;;20.55;61.35;96237.66;10216811;29;20123;-51
2022/07/25 16:35:54;;;;;;;5.85;3.85;;;;;;;20.59;62.27;96237.00;10228923;28;20050;-52
2022/07/25 16:41:14;;;;;;;7.63;3.08;;;;;;;20.60;62.61;96223.16;10228787;28;20055;-52
2022/07/25 16:46:35;;;;;;;9.15;4.22;;;;;;;20.63;63.02;96227.09;10215956;29;20063;-51
2022/07/25 16:51:54;;;;;;;5.00;3.70;;;;;;;20.64;62.98;96217.81;10214824;29;20066;-52
2022/07/25 16:57:14;;;;;;;8.40;3.90;;;;;;;20.64;62.92;96213.22;10214937;29;20059;-52
2022/07/25 17:02:33;;;;;;;7.38;3.92;;;;;;;20.63;62.94;96211.63;10200768;29;20068;-52
2022/07/25 17:07:53;;;;;;;6.40;3.47;;;;;;;20.65;63.17;96206.66;10214983;29;20059;-55
2022/07/25 17:13:13;;;;;;;4.63;3.50;;;;;;;20.65;63.20;96195.81;10215158;29;20123;-52
2022/07/25 17:18:32;;;;;;;6.25;3.50;;;;;;;20.67;63.03;96200.91;10212102;29;20064;-52
2022/07/25 17:23:52;;;;;;;7.00;3.30;;;;;;;20.66;62.98;96186.59;10227363;28;20047;-51
2022/07/25 17:29:12;;;;;;;4.22;3.45;;;;;;;20.68;62.82;96184.31;10202828;29;20055;-53
2022/07/25 17:34:32;;;;;;;3.95;3.17;;;;;;;20.68;62.82;96186.22;10213529;29;20059;-51
2022/07/25 17:39:52;;;;;;;3.83;3.30;;;;;;;20.67;62.19;96176.53;10213906;29;20058;-53
2022/07/25 17:45:12;;;;;;;3.67;2.85;;;;;;;20.67;61.95;96177.31;10226715;28;20577;-52
2022/07/25 17:50:31;;;;;;;4.03;2.65;;;;;;;20.68;61.67;96175.41;10209696;29;20055;-50
2022/07/25 17:55:51;;;;;;;3.35;2.65;;;;;;;20.68;61.29;96175.41;10212634;29;20059;-50
2022/07/25 18:01:10;;;;;;;5.65;2.90;;;;;;;20.67;60.85;96169.19;10213265;29;20134;-50
2022/07/25 18:06:29;;;;;;;3.20;2.80;;;;;;;20.66;60.42;96170.34;10213168;29;20052;-51
2022/07/25 18:11:49;;;;;;;4.07;3.38;;;;;;;20.65;59.64;96160.66;10213513;29;20090;-51
2022/07/25 18:17:09;;;;;;;5.13;2.72;;;;;;;20.65;59.04;96157.94;10209290;29;20064;-51
2022/07/25 18:22:29;;;;;;;3.13;2.83;;;;;;;20.65;58.29;96159.88;10212572;29;20067;-49
2022/07/25 18:27:49;;;;;;;3.40;2.92;;;;;;;20.62;58.30;96164.06;10212569;29;20051;-50
2022/07/25 18:33:08;;;;;;;3.05;2.40;;;;;;;20.63;58.00;96162.91;10212375;29;20067;-50
2022/07/25 18:38:28;;;;;;;3.33;2.70;;;;;;;20.65;58.26;96155.22;10219122;29;20103;-50
2022/07/25 18:43:49;;;;;;;3.47;2.90;;;;;;;20.66;58.65;96156.81;10237834;28;20066;-52
2022/07/25 18:49:08;;;;;;;3.53;2.88;;;;;;;20.66;58.75;96151.41;10225259;29;20071;-51
2022/07/25 18:54:27;;;;;;;3.65;3.17;;;;;;;20.66;58.81;96145.19;10225237;29;20059;-50
2022/07/25 18:59:46;;;;;;;3.47;2.70;;;;;;;20.67;58.97;96147.56;10224863;29;20051;-50
2022/07/25 19:05:07;;;;;;;3.67;2.80;;;;;;;20.68;59.24;96143.72;10237547;28;20158;-54
2022/07/25 19:10:26;;;;;;;4.38;2.85;;;;;;;20.68;59.31;96157.25;10224799;29;20168;-51
2022/07/25 19:15:46;;;;;;;5.82;3.30;;;;;;;20.69;59.46;96150.69;10224299;29;20066;-47
2022/07/25 19:21:07;;;;;;;6.70;3.00;;;;;;;20.68;59.53;96154.56;10224144;29;20520;-48
2022/07/25 19:26:26;;;;;;;3.45;3.00;;;;;;;20.68;59.60;96149.13;10224759;29;20085;-50
2022/07/25 19:31:46;;;;;;;3.13;2.80;;;;;;;20.67;59.57;96144.84;10220790;29;20085;-49
2022/07/25 19:37:06;;;;;;;5.97;3.13;;;;;;;20.68;59.69;96137.50;10224197;29;20111;-49
2022/07/25 19:42:25;;;;;;;3.33;2.97;;;;;;;20.68;59.70;96140.22;10223391;29;20055;-48
2022/07/25 19:47:45;;;;;;;3.92;3.05;;;;;;;20.68;59.73;96140.22;10221505;29;20055;-52
2022/07/25 19:53:04;;;;;;;4.57;2.85;;;;;;;20.68;59.67;96148.31;10217877;29;20070;-48
2022/07/25 19:58:23;;;;;;;4.63;2.63;;;;;;;20.68;59.81;96151.84;10207034;29;20055;-49
2022/07/25 20:03:43;;;;;;;3.13;2.75;;;;;;;20.69;59.79;96153.41;10217463;29;20381;-48
2022/07/25 20:09:03;;;;;;;3.90;2.90;;;;;;;20.69;59.73;96149.91;10229960;29;20056;-48
2022/07/25 20:14:23;;;;;;;3.60;2.72;;;;;;;20.69;59.79;96160.75;10228891;29;20052;-49
2022/07/25 20:19:42;;;;;;;3.95;2.72;;;;;;;20.68;59.82;96159.97;10229877;28;20052;-49
2022/07/25 20:25:10;;;;;;;4.75;3.33;;;;;;;20.67;59.85;96161.09;10229580;28;20055;-49
2022/07/25 20:30:29;;;;;;;4.83;3.57;;;;;;;20.69;59.83;96161.53;10215879;29;20071;-52
2022/07/25 20:35:49;;;;;;;3.92;3.05;;;;;;;20.69;59.87;96149.91;10205106;29;20060;-49
2022/07/25 20:41:10;;;;;;;3.58;2.90;;;;;;;20.69;59.97;96148.00;10216126;29;20184;-49
2022/07/25 20:46:34;;;;;;;4.45;3.10;;;;;;;20.69;59.86;96147.22;10215983;29;20052;-50
2022/07/25 20:51:54;;;;;;;13.63;3.92;;;;;;;20.69;59.96;96150.69;10228114;28;20055;-50
2022/07/25 20:57:14;;;;;;;4.82;3.17;;;;;;;20.69;59.98;96156.09;10215773;29;20059;-47
2022/07/25 21:02:33;;;;;;;3.90;2.90;;;;;;;20.68;59.94;96154.56;10217254;28;20059;-50
2022/07/25 21:07:53;;;;;;;3.90;3.28;;;;;;;20.69;60.10;96155.34;10215263;29;20078;-48
2022/07/25 21:13:12;;;;;;;4.47;3.15;;;;;;;20.69;59.95;96155.34;10209023;29;20059;-48
2022/07/25 21:18:31;;;;;;;3.40;3.08;;;;;;;20.68;59.96;96154.56;10214270;29;20060;-48
2022/07/25 21:23:51;;;;;;;3.40;3.10;;;;;;;20.70;60.03;96151.50;10214560;29;20464;-49
2022/07/25 21:29:11;;;;;;;4.00;3.20;;;;;;;20.68;60.00;96143.72;10202880;29;20063;-49
2022/07/25 21:34:31;;;;;;;3.60;3.30;;;;;;;20.70;60.13;96146.09;10226920;28;20058;-49
2022/07/25 21:39:50;;;;;;;3.80;3.50;;;;;;;20.70;60.20;96143.38;10214125;29;20059;-48
2022/07/25 21:45:10;;;;;;;3.35;3.05;;;;;;;20.70;59.92;96148.81;10226290;28;20527;-51
2022/07/25 21:50:36;;;;;;;3.85;3.15;;;;;;;20.69;60.09;96134.47;10213571;29;20078;-48
2022/07/25 21:55:56;;;;;;;3.78;3.47;;;;;;;20.70;59.98;96144.16;10212737;29;20067;-50
2022/07/25 22:01:15;;;;;;;3.95;3.65;;;;;;;20.70;60.13;96146.09;10212663;29;20068;-50
2022/07/25 22:06:34;;;;;;;3.70;3.30;;;;;;;20.71;60.10;96155.78;10202988;29;20051;-50
2022/07/25 22:11:55;;;;;;;3.80;3.50;;;;;;;20.70;60.08;96155.00;10225276;28;20112;-49
2022/07/25 22:17:14;;;;;;;3.78;3.38;;;;;;;20.70;60.02;96152.28;10212414;29;20056;-51
2022/07/25 22:22:34;;;;;;;3.92;3.38;;;;;;;20.70;60.05;96167.75;10201515;29;20099;-48
2022/07/25 22:27:53;;;;;;;3.80;3.33;;;;;;;20.69;60.17;96172.34;10225474;28;20062;-49
2022/07/25 22:33:13;;;;;;;3.45;3.15;;;;;;;20.70;60.09;96168.53;10212005;29;20530;-50
2022/07/25 22:38:33;;;;;;;4.88;3.60;;;;;;;20.70;60.08;96173.94;10212503;29;20097;-50
2022/07/25 22:43:53;;;;;;;3.92;3.50;;;;;;;20.70;60.03;96190.19;10202891;29;20055;-48
2022/07/25 22:49:12;;;;;;;4.18;3.60;;;;;;;20.72;60.07;96195.25;10224640;29;20064;-49
2022/07/25 22:54:32;;;;;;;3.90;3.50;;;;;;;20.70;60.07;96195.59;10214846;29;20055;-50
2022/07/25 22:59:52;;;;;;;3.63;3.33;;;;;;;20.70;60.08;96197.53;10224648;29;20047;-51
2022/07/25 23:05:11;;;;;;;4.57;4.07;;;;;;;20.71;60.07;96204.50;10211369;29;20393;-48
2022/07/25 23:10:30;;;;;;;4.03;3.72;;;;;;;20.70;60.03;96206.41;10211737;29;20060;-50
2022/07/25 23:15:49;;;;;;;4.15;3.75;;;;;;;20.71;60.12;96202.56;10211330;29;20055;-51
2022/07/25 23:21:08;;;;;;;3.67;3.38;;;;;;;20.70;60.11;96192.88;10214155;29;20460;-49
2022/07/25 23:26:28;;;;;;;4.03;3.55;;;;;;;20.72;60.12;96193.31;10217129;29;20056;-50
2022/07/25 23:31:47;;;;;;;3.60;3.30;;;;;;;20.71;60.09;96202.56;10231568;29;20054;-49
2022/07/25 23:37:07;;;;;;;3.90;3.50;;;;;;;20.70;60.04;96206.41;10218490;29;20055;-50
2022/07/25 23:42:26;;;;;;;4.03;3.70;;;;;;;20.71;60.07;96210.69;10218307;29;20448;-50
2022/07/25 23:47:45;;;;;;;4.10;3.70;;;;;;;20.71;60.03;96226.91;10217875;29;20052;-50
2022/07/25 23:53:05;;;;;;;4.95;3.88;;;;;;;20.72;60.03;96225.81;10218057;29;20067;-49
2022/07/25 23:58:25;;;;;;;4.32;3.92;;;;;;;20.71;60.07;96232.34;10207538;29;20399;-50
